sensor_id;sensor_type;location;lat;lon;timestamp;noise_LAeq;noise_LA_min;noise_LA_max;noise_LA01;noise_LA95
74234;Laerm;62591;55.764;37.718;2023-12-04T00:00:51;35.76;32.58;40.94;;
74234;Laerm;62591;55.764;37.718;2023-12-04T00:03:23;36.70;32.41;50.62;;
74234;Laerm;62591;55.764;37.718;2023-12-04T00:05:53;37.60;32.89;45.66;;
74234;Laerm;62591;55.764;37.718;2023-12-04T00:08:24;36.52;33.17;43.80;;
74234;Laerm;62591;55.764;37.718;2023-12-04T00:10:53;35.90;32.47;40.20;;
74234;Laerm;62591;55.764;37.718;2023-12-04T00:13:22;35.72;32.55;45.75;;
74234;Laerm;62591;55.764;37.718;2023-12-04T00:15:52;35.96;32.65;41.37;;
74234;Laerm;62591;55.764;37.718;2023-12-04T00:18:21;35.27;32.23;39.15;;
74234;Laerm;62591;55.764;37.718;2023-12-04T00:20:50;35.50;31.98;44.94;;
74234;Laerm;62591;55.764;37.718;2023-12-04T00:23:20;36.01;32.78;43.80;;
74234;Laerm;62591;55.764;37.718;2023-12-04T00:25:53;36.10;32.59;42.23;;
74234;Laerm;62591;55.764;37.718;2023-12-04T00:28:23;36.11;32.50;44.98;;
74234;Laerm;62591;55.764;37.718;2023-12-04T00:30:52;35.16;31.95;41.82;;
74234;Laerm;62591;55.764;37.718;2023-12-04T00:33:21;35.21;31.84;44.65;;
74234;Laerm;62591;55.764;37.718;2023-12-04T00:35:51;38.91;32.80;68.73;;
74234;Laerm;62591;55.764;37.718;2023-12-04T00:38:19;35.17;31.94;41.57;;
74234;Laerm;62591;55.764;37.718;2023-12-04T00:40:48;34.68;31.73;41.60;;
74234;Laerm;62591;55.764;37.718;2023-12-04T00:43:19;38.05;32.56;50.37;;
74234;Laerm;62591;55.764;37.718;2023-12-04T00:45:48;38.76;32.78;52.81;;
74234;Laerm;62591;55.764;37.718;2023-12-04T00:48:17;36.91;32.41;58.53;;
74234;Laerm;62591;55.764;37.718;2023-12-04T00:50:45;37.59;32.21;55.98;;
74234;Laerm;62591;55.764;37.718;2023-12-04T00:53:14;35.39;32.20;46.32;;
74234;Laerm;62591;55.764;37.718;2023-12-04T00:55:43;38.86;33.08;52.59;;
74234;Laerm;62591;55.764;37.718;2023-12-04T00:58:12;41.07;33.54;65.68;;
74234;Laerm;62591;55.764;37.718;2023-12-04T01:00:42;35.53;32.52;41.83;;
74234;Laerm;62591;55.764;37.718;2023-12-04T01:03:11;36.79;32.75;60.78;;
74234;Laerm;62591;55.764;37.718;2023-12-04T01:05:40;36.50;32.53;57.46;;
74234;Laerm;62591;55.764;37.718;2023-12-04T01:08:09;36.63;32.56;44.29;;
74234;Laerm;62591;55.764;37.718;2023-12-04T01:10:39;37.81;33.00;51.30;;
74234;Laerm;62591;55.764;37.718;2023-12-04T01:13:08;36.73;33.55;49.09;;
74234;Laerm;62591;55.764;37.718;2023-12-04T01:15:37;38.93;33.32;58.57;;
74234;Laerm;62591;55.764;37.718;2023-12-04T01:18:07;39.48;32.85;53.05;;
74234;Laerm;62591;55.764;37.718;2023-12-04T01:20:36;37.18;32.67;58.18;;
74234;Laerm;62591;55.764;37.718;2023-12-04T01:23:05;37.98;34.11;50.25;;
74234;Laerm;62591;55.764;37.718;2023-12-04T01:25:34;37.11;33.38;49.59;;
74234;Laerm;62591;55.764;37.718;2023-12-04T01:28:03;35.98;32.97;42.39;;
74234;Laerm;62591;55.764;37.718;2023-12-04T01:30:32;37.05;32.92;47.72;;
74234;Laerm;62591;55.764;37.718;2023-12-04T01:33:02;38.87;33.51;52.24;;
74234;Laerm;62591;55.764;37.718;2023-12-04T01:35:32;43.35;34.29;70.16;;
74234;Laerm;62591;55.764;37.718;2023-12-04T01:38:02;37.64;33.82;56.84;;
74234;Laerm;62591;55.764;37.718;2023-12-04T01:40:31;37.59;33.36;52.79;;
74234;Laerm;62591;55.764;37.718;2023-12-04T01:43:02;37.98;33.29;48.33;;
74234;Laerm;62591;55.764;37.718;2023-12-04T01:45:31;38.11;33.40;49.15;;
74234;Laerm;62591;55.764;37.718;2023-12-04T01:48:00;38.05;33.57;56.69;;
74234;Laerm;62591;55.764;37.718;2023-12-04T01:50:33;38.53;33.71;51.09;;
74234;Laerm;62591;55.764;37.718;2023-12-04T01:53:02;36.98;33.37;53.83;;
74234;Laerm;62591;55.764;37.718;2023-12-04T01:55:32;36.76;33.25;42.84;;
74234;Laerm;62591;55.764;37.718;2023-12-04T01:58:05;37.46;33.58;46.70;;
74234;Laerm;62591;55.764;37.718;2023-12-04T02:00:35;37.40;33.82;44.44;;
74234;Laerm;62591;55.764;37.718;2023-12-04T02:03:04;39.52;33.71;55.34;;
74234;Laerm;62591;55.764;37.718;2023-12-04T02:05:35;37.69;33.11;45.15;;
74234;Laerm;62591;55.764;37.718;2023-12-04T02:08:04;38.30;33.57;59.24;;
74234;Laerm;62591;55.764;37.718;2023-12-04T02:10:33;37.48;34.02;47.72;;
74234;Laerm;62591;55.764;37.718;2023-12-04T02:13:02;37.44;33.53;49.33;;
74234;Laerm;62591;55.764;37.718;2023-12-04T02:15:31;40.30;34.16;61.21;;
74234;Laerm;62591;55.764;37.718;2023-12-04T02:18:02;44.08;34.18;63.18;;
74234;Laerm;62591;55.764;37.718;2023-12-04T02:20:33;43.63;34.46;71.47;;
74234;Laerm;62591;55.764;37.718;2023-12-04T02:23:02;46.17;35.36;66.63;;
74234;Laerm;62591;55.764;37.718;2023-12-04T02:25:32;42.07;34.22;66.90;;
74234;Laerm;62591;55.764;37.718;2023-12-04T02:28:05;40.45;33.79;55.17;;
74234;Laerm;62591;55.764;37.718;2023-12-04T02:30:41;40.78;34.83;60.49;;
74234;Laerm;62591;55.764;37.718;2023-12-04T02:33:14;38.86;34.69;52.64;;
74234;Laerm;62591;55.764;37.718;2023-12-04T02:35:46;45.98;35.66;68.04;;
74234;Laerm;62591;55.764;37.718;2023-12-04T02:38:16;38.88;34.18;51.23;;
74234;Laerm;62591;55.764;37.718;2023-12-04T02:40:46;37.14;33.72;47.31;;
74234;Laerm;62591;55.764;37.718;2023-12-04T02:43:15;42.68;34.48;57.50;;
74234;Laerm;62591;55.764;37.718;2023-12-04T02:45:43;40.43;34.68;58.77;;
74234;Laerm;62591;55.764;37.718;2023-12-04T02:48:12;37.30;33.73;43.99;;
74234;Laerm;62591;55.764;37.718;2023-12-04T02:50:41;37.74;33.41;49.40;;
74234;Laerm;62591;55.764;37.718;2023-12-04T02:53:10;37.52;34.22;45.82;;
74234;Laerm;62591;55.764;37.718;2023-12-04T02:55:39;37.24;33.38;46.44;;
74234;Laerm;62591;55.764;37.718;2023-12-04T02:58:12;36.87;33.59;42.79;;
74234;Laerm;62591;55.764;37.718;2023-12-04T03:00:40;37.77;33.23;45.26;;
74234;Laerm;62591;55.764;37.718;2023-12-04T03:03:09;38.48;33.91;58.91;;
74234;Laerm;62591;55.764;37.718;2023-12-04T03:05:38;40.79;35.30;57.29;;
74234;Laerm;62591;55.764;37.718;2023-12-04T03:08:07;39.98;34.28;58.26;;
74234;Laerm;62591;55.764;37.718;2023-12-04T03:10:36;38.27;34.14;51.23;;
74234;Laerm;62591;55.764;37.718;2023-12-04T03:13:05;42.85;34.75;60.35;;
74234;Laerm;62591;55.764;37.718;2023-12-04T03:15:35;39.55;35.26;49.41;;
74234;Laerm;62591;55.764;37.718;2023-12-04T03:18:04;39.85;35.66;58.52;;
74234;Laerm;62591;55.764;37.718;2023-12-04T03:20:35;41.38;35.66;57.70;;
74234;Laerm;62591;55.764;37.718;2023-12-04T03:23:03;43.10;37.57;49.42;;
74234;Laerm;62591;55.764;37.718;2023-12-04T03:25:32;47.24;37.89;64.79;;
74234;Laerm;62591;55.764;37.718;2023-12-04T03:28:01;63.91;37.77;76.68;;
74234;Laerm;62591;55.764;37.718;2023-12-04T03:30:30;61.81;39.05;74.95;;
74234;Laerm;62591;55.764;37.718;2023-12-04T03:33:00;44.35;36.42;59.06;;
74234;Laerm;62591;55.764;37.718;2023-12-04T03:35:29;39.13;34.39;51.56;;
74234;Laerm;62591;55.764;37.718;2023-12-04T03:37:57;47.96;34.73;60.62;;
74234;Laerm;62591;55.764;37.718;2023-12-04T03:40:26;39.87;35.42;56.68;;
74234;Laerm;62591;55.764;37.718;2023-12-04T03:42:55;44.91;34.63;60.28;;
74234;Laerm;62591;55.764;37.718;2023-12-04T03:45:24;43.39;34.96;62.05;;
74234;Laerm;62591;55.764;37.718;2023-12-04T03:47:52;43.21;36.94;54.25;;
74234;Laerm;62591;55.764;37.718;2023-12-04T03:50:23;43.10;39.49;55.61;;
74234;Laerm;62591;55.764;37.718;2023-12-04T03:52:52;41.21;37.48;56.89;;
74234;Laerm;62591;55.764;37.718;2023-12-04T03:55:20;44.58;37.62;55.39;;
74234;Laerm;62591;55.764;37.718;2023-12-04T03:57:50;45.76;35.45;61.91;;
74234;Laerm;62591;55.764;37.718;2023-12-04T04:00:19;38.96;34.64;50.17;;
74234;Laerm;62591;55.764;37.718;2023-12-04T04:02:48;49.54;35.48;62.81;;
74234;Laerm;62591;55.764;37.718;2023-12-04T04:05:17;40.28;35.18;53.92;;
74234;Laerm;62591;55.764;37.718;2023-12-04T04:07:47;42.28;37.79;57.24;;
74234;Laerm;62591;55.764;37.718;2023-12-04T04:10:16;48.02;36.58;62.16;;
74234;Laerm;62591;55.764;37.718;2023-12-04T04:12:45;44.70;37.71;54.05;;
74234;Laerm;62591;55.764;37.718;2023-12-04T04:15:14;43.81;37.18;56.36;;
74234;Laerm;62591;55.764;37.718;2023-12-04T04:17:43;44.22;37.73;56.78;;
74234;Laerm;62591;55.764;37.718;2023-12-04T04:20:12;44.24;38.44;61.25;;
74234;Laerm;62591;55.764;37.718;2023-12-04T04:22:44;42.75;38.70;55.22;;
74234;Laerm;62591;55.764;37.718;2023-12-04T04:25:15;43.59;37.18;56.42;;
74234;Laerm;62591;55.764;37.718;2023-12-04T04:27:45;43.60;38.52;55.11;;
74234;Laerm;62591;55.764;37.718;2023-12-04T04:30:14;41.56;37.31;49.53;;
74234;Laerm;62591;55.764;37.718;2023-12-04T04:32:45;40.85;37.31;53.00;;
74234;Laerm;62591;55.764;37.718;2023-12-04T04:35:13;43.65;37.72;57.33;;
74234;Laerm;62591;55.764;37.718;2023-12-04T04:37:42;45.67;38.32;72.76;;
74234;Laerm;62591;55.764;37.718;2023-12-04T04:40:15;44.22;37.97;59.66;;
74234;Laerm;62591;55.764;37.718;2023-12-04T04:42:44;41.91;36.77;52.55;;
74234;Laerm;62591;55.764;37.718;2023-12-04T04:45:13;41.60;37.37;50.06;;
74234;Laerm;62591;55.764;37.718;2023-12-04T04:47:42;41.54;37.29;56.31;;
74234;Laerm;62591;55.764;37.718;2023-12-04T04:50:11;40.40;36.24;52.52;;
74234;Laerm;62591;55.764;37.718;2023-12-04T04:52:40;40.79;36.99;48.58;;
74234;Laerm;62591;55.764;37.718;2023-12-04T04:55:09;43.54;38.07;58.15;;
74234;Laerm;62591;55.764;37.718;2023-12-04T04:57:59;43.97;36.88;55.04;;
74234;Laerm;62591;55.764;37.718;2023-12-04T05:00:28;47.70;38.59;61.73;;
74234;Laerm;62591;55.764;37.718;2023-12-04T05:02:56;44.73;38.64;53.75;;
74234;Laerm;62591;55.764;37.718;2023-12-04T05:05:25;52.80;38.02;82.88;;
74234;Laerm;62591;55.764;37.718;2023-12-04T05:07:55;43.83;38.26;59.90;;
74234;Laerm;62591;55.764;37.718;2023-12-04T05:10:23;42.29;38.13;57.20;;
74234;Laerm;62591;55.764;37.718;2023-12-04T05:12:54;44.74;39.46;60.41;;
74234;Laerm;62591;55.764;37.718;2023-12-04T05:15:24;47.68;38.53;62.29;;
74234;Laerm;62591;55.764;37.718;2023-12-04T05:17:54;51.59;38.82;66.22;;
74234;Laerm;62591;55.764;37.718;2023-12-04T05:20:23;45.74;38.26;64.34;;
74234;Laerm;62591;55.764;37.718;2023-12-04T05:22:52;45.90;38.57;65.04;;
74234;Laerm;62591;55.764;37.718;2023-12-04T05:25:20;44.97;37.53;62.34;;
74234;Laerm;62591;55.764;37.718;2023-12-04T05:27:53;47.62;38.37;60.83;;
74234;Laerm;62591;55.764;37.718;2023-12-04T05:30:22;51.67;38.55;83.32;;
74234;Laerm;62591;55.764;37.718;2023-12-04T05:32:52;46.93;38.43;60.34;;
74234;Laerm;62591;55.764;37.718;2023-12-04T05:35:22;45.95;38.07;61.61;;
74234;Laerm;62591;55.764;37.718;2023-12-04T05:37:50;46.63;38.74;63.52;;
74234;Laerm;62591;55.764;37.718;2023-12-04T05:40:22;46.76;39.07;71.64;;
74234;Laerm;62591;55.764;37.718;2023-12-04T05:42:51;46.74;40.09;66.82;;
74234;Laerm;62591;55.764;37.718;2023-12-04T05:45:21;47.19;39.33;69.15;;
74234;Laerm;62591;55.764;37.718;2023-12-04T05:47:52;45.81;38.68;61.99;;
74234;Laerm;62591;55.764;37.718;2023-12-04T05:50:20;45.91;38.95;63.26;;
74234;Laerm;62591;55.764;37.718;2023-12-04T05:52:50;45.31;38.55;65.10;;
74234;Laerm;62591;55.764;37.718;2023-12-04T05:55:18;47.85;40.44;59.41;;
74234;Laerm;62591;55.764;37.718;2023-12-04T05:57:48;44.18;38.43;64.75;;
74234;Laerm;62591;55.764;37.718;2023-12-04T06:00:18;42.60;38.36;61.04;;
74234;Laerm;62591;55.764;37.718;2023-12-04T06:02:47;45.56;38.91;66.97;;
74234;Laerm;62591;55.764;37.718;2023-12-04T06:05:18;45.35;38.32;64.68;;
74234;Laerm;62591;55.764;37.718;2023-12-04T06:07:47;45.07;40.07;62.13;;
74234;Laerm;62591;55.764;37.718;2023-12-04T06:10:16;45.10;39.54;67.22;;
74234;Laerm;62591;55.764;37.718;2023-12-04T06:12:45;46.94;40.52;58.46;;
74234;Laerm;62591;55.764;37.718;2023-12-04T06:15:13;50.22;38.05;71.78;;
74234;Laerm;62591;55.764;37.718;2023-12-04T06:17:42;48.18;38.84;74.52;;
74234;Laerm;62591;55.764;37.718;2023-12-04T06:20:11;46.03;39.90;56.68;;
74234;Laerm;62591;55.764;37.718;2023-12-04T06:22:42;44.30;39.61;56.34;;
74234;Laerm;62591;55.764;37.718;2023-12-04T06:25:17;48.05;40.34;65.18;;
74234;Laerm;62591;55.764;37.718;2023-12-04T06:27:50;43.99;38.88;59.47;;
74234;Laerm;62591;55.764;37.718;2023-12-04T06:30:20;43.81;39.28;56.61;;
74234;Laerm;62591;55.764;37.718;2023-12-04T06:32:52;43.40;37.78;67.67;;
74234;Laerm;62591;55.764;37.718;2023-12-04T06:35:24;43.36;37.48;65.97;;
74234;Laerm;62591;55.764;37.718;2023-12-04T06:37:55;49.04;39.32;70.11;;
74234;Laerm;62591;55.764;37.718;2023-12-04T06:40:27;44.90;40.26;54.98;;
74234;Laerm;62591;55.764;37.718;2023-12-04T06:43:00;45.38;40.07;55.21;;
74234;Laerm;62591;55.764;37.718;2023-12-04T06:45:30;42.23;36.66;51.54;;
74234;Laerm;62591;55.764;37.718;2023-12-04T06:48:00;46.33;38.35;59.52;;
74234;Laerm;62591;55.764;37.718;2023-12-04T06:50:29;46.67;38.41;70.57;;
74234;Laerm;62591;55.764;37.718;2023-12-04T06:52:59;45.13;38.52;60.36;;
74234;Laerm;62591;55.764;37.718;2023-12-04T06:55:28;44.20;37.35;60.16;;
74234;Laerm;62591;55.764;37.718;2023-12-04T06:57:56;42.38;38.61;54.34;;
74234;Laerm;62591;55.764;37.718;2023-12-04T07:00:25;42.69;37.93;60.84;;
74234;Laerm;62591;55.764;37.718;2023-12-04T07:02:54;42.73;36.99;63.38;;
74234;Laerm;62591;55.764;37.718;2023-12-04T07:05:23;43.82;37.40;69.32;;
74234;Laerm;62591;55.764;37.718;2023-12-04T07:07:52;42.70;37.89;61.25;;
74234;Laerm;62591;55.764;37.718;2023-12-04T07:10:22;45.05;37.74;61.26;;
74234;Laerm;62591;55.764;37.718;2023-12-04T07:12:51;41.59;37.19;52.61;;
74234;Laerm;62591;55.764;37.718;2023-12-04T07:15:20;43.89;38.96;60.84;;
74234;Laerm;62591;55.764;37.718;2023-12-04T07:17:50;41.65;36.86;52.75;;
74234;Laerm;62591;55.764;37.718;2023-12-04T07:20:21;43.23;37.65;59.07;;
74234;Laerm;62591;55.764;37.718;2023-12-04T07:22:51;42.81;38.68;53.91;;
74234;Laerm;62591;55.764;37.718;2023-12-04T07:25:22;43.21;38.30;59.29;;
74234;Laerm;62591;55.764;37.718;2023-12-04T07:27:51;42.77;36.78;59.51;;
74234;Laerm;62591;55.764;37.718;2023-12-04T07:30:19;44.40;37.14;57.04;;
74234;Laerm;62591;55.764;37.718;2023-12-04T07:32:48;43.24;36.88;56.75;;
74234;Laerm;62591;55.764;37.718;2023-12-04T07:35:17;41.75;37.23;52.28;;
74234;Laerm;62591;55.764;37.718;2023-12-04T07:37:46;41.31;36.97;55.06;;
74234;Laerm;62591;55.764;37.718;2023-12-04T07:40:16;41.29;37.16;51.76;;
74234;Laerm;62591;55.764;37.718;2023-12-04T07:42:46;41.51;36.79;59.51;;
74234;Laerm;62591;55.764;37.718;2023-12-04T07:45:15;41.14;36.57;49.37;;
74234;Laerm;62591;55.764;37.718;2023-12-04T07:47:44;41.49;37.17;58.02;;
74234;Laerm;62591;55.764;37.718;2023-12-04T07:50:14;44.03;38.56;63.28;;
74234;Laerm;62591;55.764;37.718;2023-12-04T07:52:45;42.12;38.21;47.98;;
74234;Laerm;62591;55.764;37.718;2023-12-04T07:55:14;47.18;38.25;61.32;;
74234;Laerm;62591;55.764;37.718;2023-12-04T07:57:45;60.89;37.73;79.14;;
74234;Laerm;62591;55.764;37.718;2023-12-04T08:00:15;46.20;39.43;73.11;;
74234;Laerm;62591;55.764;37.718;2023-12-04T08:02:45;44.37;38.67;62.80;;
74234;Laerm;62591;55.764;37.718;2023-12-04T08:05:14;45.63;38.50;62.18;;
74234;Laerm;62591;55.764;37.718;2023-12-04T08:07:43;50.82;38.84;81.30;;
74234;Laerm;62591;55.764;37.718;2023-12-04T08:10:12;45.33;39.42;58.07;;
74234;Laerm;62591;55.764;37.718;2023-12-04T08:12:48;44.45;38.95;59.74;;
74234;Laerm;62591;55.764;37.718;2023-12-04T08:15:17;44.66;38.39;58.17;;
74234;Laerm;62591;55.764;37.718;2023-12-04T08:17:46;45.11;39.25;61.12;;
74234;Laerm;62591;55.764;37.718;2023-12-04T08:20:16;44.58;39.15;60.39;;
74234;Laerm;62591;55.764;37.718;2023-12-04T08:23:02;46.05;38.99;70.57;;
74234;Laerm;62591;55.764;37.718;2023-12-04T08:25:31;45.80;39.25;57.82;;
74234;Laerm;62591;55.764;37.718;2023-12-04T08:28:02;46.12;38.30;60.85;;
74234;Laerm;62591;55.764;37.718;2023-12-04T08:30:31;46.38;38.97;61.63;;
74234;Laerm;62591;55.764;37.718;2023-12-04T08:33:00;45.37;38.03;62.35;;
74234;Laerm;62591;55.764;37.718;2023-12-04T08:35:30;44.41;38.78;58.73;;
74234;Laerm;62591;55.764;37.718;2023-12-04T08:37:59;48.12;38.07;70.50;;
74234;Laerm;62591;55.764;37.718;2023-12-04T08:40:28;46.23;38.93;62.89;;
74234;Laerm;62591;55.764;37.718;2023-12-04T08:42:57;47.08;39.01;63.57;;
74234;Laerm;62591;55.764;37.718;2023-12-04T08:45:27;46.43;38.54;68.35;;
74234;Laerm;62591;55.764;37.718;2023-12-04T08:47:57;44.36;37.73;60.18;;
74234;Laerm;62591;55.764;37.718;2023-12-04T08:50:25;42.26;37.28;57.13;;
74234;Laerm;62591;55.764;37.718;2023-12-04T08:52:54;42.62;37.07;56.40;;
74234;Laerm;62591;55.764;37.718;2023-12-04T08:55:23;43.05;37.36;65.77;;
74234;Laerm;62591;55.764;37.718;2023-12-04T08:57:52;43.53;37.96;58.94;;
74234;Laerm;62591;55.764;37.718;2023-12-04T09:00:21;46.94;38.44;59.05;;
74234;Laerm;62591;55.764;37.718;2023-12-04T09:02:51;43.50;37.08;62.97;;
74234;Laerm;62591;55.764;37.718;2023-12-04T09:05:35;43.44;36.23;56.21;;
74234;Laerm;62591;55.764;37.718;2023-12-04T09:08:05;43.47;36.04;61.21;;
74234;Laerm;62591;55.764;37.718;2023-12-04T09:10:37;43.68;37.76;62.88;;
74234;Laerm;62591;55.764;37.718;2023-12-04T09:13:28;44.99;38.39;65.97;;
74234;Laerm;62591;55.764;37.718;2023-12-04T09:15:59;43.46;38.19;64.34;;
74234;Laerm;62591;55.764;37.718;2023-12-04T09:18:29;44.38;37.09;58.91;;
74234;Laerm;62591;55.764;37.718;2023-12-04T09:20:58;43.93;38.19;55.82;;
74234;Laerm;62591;55.764;37.718;2023-12-04T09:23:28;44.21;37.70;57.08;;
74234;Laerm;62591;55.764;37.718;2023-12-04T09:25:57;45.53;37.30;64.55;;
74234;Laerm;62591;55.764;37.718;2023-12-04T09:28:26;49.21;36.04;63.34;;
74234;Laerm;62591;55.764;37.718;2023-12-04T09:30:55;44.66;37.12;55.82;;
74234;Laerm;62591;55.764;37.718;2023-12-04T09:33:24;43.52;37.78;56.06;;
74234;Laerm;62591;55.764;37.718;2023-12-04T09:35:55;45.10;36.50;57.77;;
74234;Laerm;62591;55.764;37.718;2023-12-04T09:38:24;44.07;38.12;65.31;;
74234;Laerm;62591;55.764;37.718;2023-12-04T09:40:55;43.39;37.11;54.59;;
74234;Laerm;62591;55.764;37.718;2023-12-04T09:43:26;42.10;37.12;51.84;;
74234;Laerm;62591;55.764;37.718;2023-12-04T09:45:57;44.07;38.36;60.21;;
74234;Laerm;62591;55.764;37.718;2023-12-04T09:48:27;43.45;38.61;54.25;;
74234;Laerm;62591;55.764;37.718;2023-12-04T09:51:01;46.80;40.55;74.48;;
74234;Laerm;62591;55.764;37.718;2023-12-04T09:53:32;44.88;39.13;63.68;;
74234;Laerm;62591;55.764;37.718;2023-12-04T09:56:03;45.14;39.96;66.03;;
74234;Laerm;62591;55.764;37.718;2023-12-04T09:58:32;44.39;38.73;52.40;;
74234;Laerm;62591;55.764;37.718;2023-12-04T10:01:03;43.71;38.16;62.65;;
74234;Laerm;62591;55.764;37.718;2023-12-04T10:03:34;42.64;38.87;50.81;;
74234;Laerm;62591;55.764;37.718;2023-12-04T10:06:06;44.48;39.58;57.78;;
74234;Laerm;62591;55.764;37.718;2023-12-04T10:08:36;44.17;40.00;52.60;;
74234;Laerm;62591;55.764;37.718;2023-12-04T10:11:05;46.45;39.57;60.50;;
74234;Laerm;62591;55.764;37.718;2023-12-04T10:13:33;44.35;38.97;64.54;;
74234;Laerm;62591;55.764;37.718;2023-12-04T10:16:33;44.31;39.73;60.74;;
74234;Laerm;62591;55.764;37.718;2023-12-04T10:19:18;44.13;40.45;57.13;;
74234;Laerm;62591;55.764;37.718;2023-12-04T10:21:50;45.28;38.71;73.06;;
74234;Laerm;62591;55.764;37.718;2023-12-04T10:24:32;47.10;39.63;61.12;;
74234;Laerm;62591;55.764;37.718;2023-12-04T10:27:04;51.60;39.12;77.74;;
74234;Laerm;62591;55.764;37.718;2023-12-04T10:29:41;43.44;38.73;63.68;;
74234;Laerm;62591;55.764;37.718;2023-12-04T10:32:10;47.63;38.25;73.83;;
74234;Laerm;62591;55.764;37.718;2023-12-04T10:34:41;43.56;38.27;60.60;;
74234;Laerm;62591;55.764;37.718;2023-12-04T10:37:12;45.59;38.25;57.13;;
74234;Laerm;62591;55.764;37.718;2023-12-04T10:39:46;45.01;38.49;63.83;;
74234;Laerm;62591;55.764;37.718;2023-12-04T10:42:23;47.29;38.24;63.57;;
74234;Laerm;62591;55.764;37.718;2023-12-04T10:44:55;54.01;40.00;78.44;;
74234;Laerm;62591;55.764;37.718;2023-12-04T10:47:25;61.11;40.18;86.42;;
74234;Laerm;62591;55.764;37.718;2023-12-04T10:49:54;52.80;39.86;72.63;;
74234;Laerm;62591;55.764;37.718;2023-12-04T10:52:26;52.66;38.36;80.50;;
74234;Laerm;62591;55.764;37.718;2023-12-04T10:54:58;53.07;38.09;78.23;;
74234;Laerm;62591;55.764;37.718;2023-12-04T10:57:33;43.86;38.60;57.08;;
74234;Laerm;62591;55.764;37.718;2023-12-04T11:00:05;43.58;38.34;56.26;;
74234;Laerm;62591;55.764;37.718;2023-12-04T11:02:38;45.40;37.96;64.23;;
74234;Laerm;62591;55.764;37.718;2023-12-04T11:05:16;42.03;37.76;56.55;;
74234;Laerm;62591;55.764;37.718;2023-12-04T11:07:51;42.25;37.67;61.67;;
74234;Laerm;62591;55.764;37.718;2023-12-04T11:10:45;43.17;38.08;65.87;;
74234;Laerm;62591;55.764;37.718;2023-12-04T11:13:21;47.45;38.52;66.85;;
74234;Laerm;62591;55.764;37.718;2023-12-04T11:15:52;44.18;38.56;64.11;;
74234;Laerm;62591;55.764;37.718;2023-12-04T11:18:24;43.66;38.94;60.41;;
74234;Laerm;62591;55.764;37.718;2023-12-04T11:20:58;48.24;37.37;61.59;;
74234;Laerm;62591;55.764;37.718;2023-12-04T11:23:30;42.32;37.24;62.37;;
74234;Laerm;62591;55.764;37.718;2023-12-04T11:26:00;44.16;38.99;59.39;;
74234;Laerm;62591;55.764;37.718;2023-12-04T11:28:30;45.03;39.29;55.00;;
74234;Laerm;62591;55.764;37.718;2023-12-04T11:31:01;46.85;39.67;60.77;;
74234;Laerm;62591;55.764;37.718;2023-12-04T11:33:34;47.46;38.65;62.75;;
74234;Laerm;62591;55.764;37.718;2023-12-04T11:36:08;45.28;38.72;60.14;;
74234;Laerm;62591;55.764;37.718;2023-12-04T11:38:44;45.49;39.26;57.43;;
74234;Laerm;62591;55.764;37.718;2023-12-04T11:41:17;46.08;38.81;64.09;;
74234;Laerm;62591;55.764;37.718;2023-12-04T11:43:55;46.94;41.68;65.06;;
74234;Laerm;62591;55.764;37.718;2023-12-04T11:46:26;44.87;39.91;59.55;;
74234;Laerm;62591;55.764;37.718;2023-12-04T11:49:27;44.19;39.45;64.79;;
74234;Laerm;62591;55.764;37.718;2023-12-04T11:51:58;46.22;40.23;63.06;;
74234;Laerm;62591;55.764;37.718;2023-12-04T11:54:28;46.57;39.33;57.40;;
74234;Laerm;62591;55.764;37.718;2023-12-04T11:56:59;42.56;37.39;61.76;;
74234;Laerm;62591;55.764;37.718;2023-12-04T11:59:27;45.85;38.22;62.13;;
74234;Laerm;62591;55.764;37.718;2023-12-04T12:01:56;44.36;39.38;59.69;;
74234;Laerm;62591;55.764;37.718;2023-12-04T12:04:27;45.83;38.71;61.17;;
74234;Laerm;62591;55.764;37.718;2023-12-04T12:06:58;43.84;38.60;60.08;;
74234;Laerm;62591;55.764;37.718;2023-12-04T12:09:32;44.10;38.28;58.26;;
74234;Laerm;62591;55.764;37.718;2023-12-04T12:12:03;45.16;38.25;64.20;;
74234;Laerm;62591;55.764;37.718;2023-12-04T12:14:32;44.74;38.01;58.47;;
74234;Laerm;62591;55.764;37.718;2023-12-04T12:17:01;44.24;38.99;51.96;;
74234;Laerm;62591;55.764;37.718;2023-12-04T12:19:38;45.06;41.24;56.67;;
74234;Laerm;62591;55.764;37.718;2023-12-04T12:22:07;45.44;40.34;62.29;;
74234;Laerm;62591;55.764;37.718;2023-12-04T12:24:39;45.51;41.39;56.93;;
74234;Laerm;62591;55.764;37.718;2023-12-04T12:27:08;47.48;42.83;66.63;;
74234;Laerm;62591;55.764;37.718;2023-12-04T12:29:39;47.22;42.11;56.02;;
74234;Laerm;62591;55.764;37.718;2023-12-04T12:32:08;45.88;40.92;55.79;;
74234;Laerm;62591;55.764;37.718;2023-12-04T12:34:37;46.85;41.51;56.37;;
74234;Laerm;62591;55.764;37.718;2023-12-04T12:37:06;47.25;42.67;58.94;;
74234;Laerm;62591;55.764;37.718;2023-12-04T12:39:44;47.77;41.53;60.31;;
74234;Laerm;62591;55.764;37.718;2023-12-04T12:42:21;47.51;43.10;57.49;;
74234;Laerm;62591;55.764;37.718;2023-12-04T12:44:52;47.50;43.06;53.77;;
74234;Laerm;62591;55.764;37.718;2023-12-04T12:47:25;46.05;42.01;53.19;;
74234;Laerm;62591;55.764;37.718;2023-12-04T12:49:54;44.74;41.48;50.90;;
74234;Laerm;62591;55.764;37.718;2023-12-04T12:52:23;45.93;40.56;52.80;;
74234;Laerm;62591;55.764;37.718;2023-12-04T12:54:55;44.49;38.00;61.69;;
74234;Laerm;62591;55.764;37.718;2023-12-04T12:57:25;42.68;37.55;54.85;;
74234;Laerm;62591;55.764;37.718;2023-12-04T12:59:54;44.01;37.84;57.38;;
74234;Laerm;62591;55.764;37.718;2023-12-04T13:02:25;44.95;38.89;65.68;;
74234;Laerm;62591;55.764;37.718;2023-12-04T13:04:55;42.91;37.97;51.51;;
74234;Laerm;62591;55.764;37.718;2023-12-04T13:07:26;44.30;38.62;59.64;;
74234;Laerm;62591;55.764;37.718;2023-12-04T13:09:57;42.62;38.44;61.84;;
74234;Laerm;62591;55.764;37.718;2023-12-04T13:12:27;45.51;38.62;56.44;;
74234;Laerm;62591;55.764;37.718;2023-12-04T13:14:56;44.03;39.02;56.21;;
74234;Laerm;62591;55.764;37.718;2023-12-04T13:17:25;45.96;39.36;59.14;;
74234;Laerm;62591;55.764;37.718;2023-12-04T13:19:53;44.58;38.94;53.17;;
74234;Laerm;62591;55.764;37.718;2023-12-04T13:22:25;43.57;38.71;58.65;;
74234;Laerm;62591;55.764;37.718;2023-12-04T13:24:57;45.46;39.26;63.13;;
74234;Laerm;62591;55.764;37.718;2023-12-04T13:27:26;44.23;39.45;56.50;;
74234;Laerm;62591;55.764;37.718;2023-12-04T13:29:56;42.48;37.88;65.78;;
74234;Laerm;62591;55.764;37.718;2023-12-04T13:32:25;43.83;38.28;60.14;;
74234;Laerm;62591;55.764;37.718;2023-12-04T13:34:54;41.71;37.49;48.78;;
74234;Laerm;62591;55.764;37.718;2023-12-04T13:37:23;43.33;38.93;51.74;;
74234;Laerm;62591;55.764;37.718;2023-12-04T13:40:03;44.56;37.33;63.57;;
74234;Laerm;62591;55.764;37.718;2023-12-04T13:42:39;42.59;38.45;54.52;;
74234;Laerm;62591;55.764;37.718;2023-12-04T13:45:28;43.02;38.31;58.99;;
74234;Laerm;62591;55.764;37.718;2023-12-04T13:47:58;43.35;37.66;55.94;;
74234;Laerm;62591;55.764;37.718;2023-12-04T13:50:27;44.68;38.87;57.63;;